Time;durP1;ratioP1;P1;durP2;ratioP2;P2;SDS_P1;SDS_P2;PMS_P1;PMS_P2;Temp;Humidity;BMP_temperature;BMP_pressure;BME280_temperature;BME280_humidity;BME280_pressure;Samples;Min_cycle;Max_cycle;Signal;HPM_P1;HPM_P2
2022/09/06 00:00:22;;;;;;;4.75;1.75;;;;;;;;;;6290034;28;20459;-83
2022/09/06 00:03:22;;;;;;;6.85;3.33;;;;;;;;;;6290815;28;20045;-82
2022/09/06 00:06:22;;;;;;;9.53;2.63;;;;;;;;;;6291353;28;20434;-83
2022/09/06 00:09:22;;;;;;;4.57;1.77;;;;;;;;;;6288658;28;20043;-83
2022/09/06 00:12:23;;;;;;;5.17;2.43;;;;;;;;;;6291479;28;20047;-83
2022/09/06 00:15:23;;;;;;;4.73;2.40;;;;;;;;;;6290353;28;20028;-83
2022/09/06 00:18:23;;;;;;;4.50;2.23;;;;;;;;;;6292828;28;20531;-83
2022/09/06 00:21:25;;;;;;;6.43;2.38;;;;;;;;;;6291021;28;20031;-83
2022/09/06 00:24:25;;;;;;;6.45;2.50;;;;;;;;;;6289186;28;20078;-83
2022/09/06 00:27:27;;;;;;;5.63;2.23;;;;;;;;;;6292742;28;20012;-83
2022/09/06 00:30:28;;;;;;;3.13;2.05;;;;;;;;;;6292072;28;20020;-83
2022/09/06 00:33:28;;;;;;;4.30;1.90;;;;;;;;;;6293079;28;20024;-83
2022/09/06 00:36:28;;;;;;;5.00;2.10;;;;;;;;;;6291737;28;20289;-83
2022/09/06 00:39:28;;;;;;;5.60;2.13;;;;;;;;;;6293462;28;20031;-83
2022/09/06 00:42:29;;;;;;;5.90;2.37;;;;;;;;;;6293871;28;20025;-83
2022/09/06 00:45:29;;;;;;;3.67;1.90;;;;;;;;;;6292838;28;20050;-83
2022/09/06 00:48:30;;;;;;;5.37;2.50;;;;;;;;;;6291535;28;20020;-83
2022/09/06 00:51:31;;;;;;;3.00;1.80;;;;;;;;;;6291202;28;20016;-83
2022/09/06 00:54:31;;;;;;;5.37;2.13;;;;;;;;;;6293050;28;20036;-83
2022/09/06 00:57:31;;;;;;;3.30;2.00;;;;;;;;;;6285572;28;20372;-83
2022/09/06 01:00:32;;;;;;;8.15;2.25;;;;;;;;;;6288154;28;20078;-83
2022/09/06 01:03:32;;;;;;;3.20;1.88;;;;;;;;;;6291573;28;20496;-83
2022/09/06 01:06:51;;;;;;;3.30;1.90;;;;;;;;;;6293882;28;20012;-83
2022/09/06 01:10:07;;;;;;;4.78;1.98;;;;;;;;;;6282281;28;20029;-83
2022/09/06 01:13:07;;;;;;;5.03;2.22;;;;;;;;;;6285749;28;20131;-83
2022/09/06 01:16:07;;;;;;;2.63;1.83;;;;;;;;;;6290875;28;20438;-83
2022/09/06 01:19:13;;;;;;;4.72;2.42;;;;;;;;;;6293168;28;20267;-83
2022/09/06 01:22:32;;;;;;;6.85;3.03;;;;;;;;;;6290713;28;20484;-83
2022/09/06 01:25:51;;;;;;;7.65;2.92;;;;;;;;;;6290316;28;20122;-83
2022/09/06 01:28:51;;;;;;;6.55;2.67;;;;;;;;;;6292573;28;20048;-83
2022/09/06 01:31:55;;;;;;;6.30;2.70;;;;;;;;;;6291551;28;20025;-83
2022/09/06 01:35:00;;;;;;;5.03;2.60;;;;;;;;;;6296448;28;20454;-83
2022/09/06 01:38:00;;;;;;;5.78;2.78;;;;;;;;;;6288680;28;20067;-83
2022/09/06 01:41:00;;;;;;;4.90;2.45;;;;;;;;;;6293096;28;20180;-83
2022/09/06 01:44:01;;;;;;;3.92;2.42;;;;;;;;;;6293568;28;20021;-83
2022/09/06 01:47:08;;;;;;;4.70;2.30;;;;;;;;;;6291226;28;20138;-83
2022/09/06 01:50:17;;;;;;;6.38;2.42;;;;;;;;;;6295277;28;20020;-83
2022/09/06 01:53:26;;;;;;;7.60;2.60;;;;;;;;;;6288124;28;20035;-83
2022/09/06 01:56:46;;;;;;;7.20;3.08;;;;;;;;;;6285883;28;20032;-83
2022/09/06 01:59:53;;;;;;;7.30;2.38;;;;;;;;;;6293705;28;20112;-83
2022/09/06 02:02:57;;;;;;;5.47;2.75;;;;;;;;;;6292704;28;20024;-83
2022/09/06 02:06:03;;;;;;;8.18;2.17;;;;;;;;;;6291432;28;20337;-83
2022/09/06 02:09:07;;;;;;;5.80;2.40;;;;;;;;;;6294914;28;20031;-83
2022/09/06 02:12:11;;;;;;;5.40;2.00;;;;;;;;;;6294558;28;20143;-83
2022/09/06 02:15:37;;;;;;;4.00;2.15;;;;;;;;;;6290821;28;20025;-83
2022/09/06 02:18:38;;;;;;;5.55;2.50;;;;;;;;;;6292195;28;20063;-83
2022/09/06 02:21:40;;;;;;;4.28;1.92;;;;;;;;;;6293569;28;20024;-83
2022/09/06 02:24:41;;;;;;;5.78;2.25;;;;;;;;;;6296235;28;20017;-83
2022/09/06 02:27:41;;;;;;;4.70;2.05;;;;;;;;;;6284696;28;20382;-83
2022/09/06 02:30:43;;;;;;;6.77;2.23;;;;;;;;;;6290332;28;20384;-83
2022/09/06 02:33:44;;;;;;;4.28;2.25;;;;;;;;;;6294425;28;20028;-83
2022/09/06 02:36:45;;;;;;;4.53;2.67;;;;;;;;;;6291435;28;20426;-83
2022/09/06 02:39:45;;;;;;;5.53;2.25;;;;;;;;;;6288477;28;20012;-83
2022/09/06 02:42:45;;;;;;;6.70;2.45;;;;;;;;;;6284772;28;20028;-83
2022/09/06 02:45:46;;;;;;;5.63;3.23;;;;;;;;;;6286614;28;20024;-83
2022/09/06 02:48:46;;;;;;;5.83;2.80;;;;;;;;;;6291011;28;20017;-83
2022/09/06 02:51:46;;;;;;;6.10;2.83;;;;;;;;;;6293835;28;20123;-83
2022/09/06 02:54:46;;;;;;;5.70;2.50;;;;;;;;;;6294353;28;20539;-83
2022/09/06 02:57:47;;;;;;;3.97;2.35;;;;;;;;;;6291587;28;20266;-83
2022/09/06 03:00:48;;;;;;;4.60;2.87;;;;;;;;;;6293317;28;20406;-83
2022/09/06 03:03:49;;;;;;;4.87;2.10;;;;;;;;;;6287234;28;20527;-83
2022/09/06 03:06:49;;;;;;;7.57;2.87;;;;;;;;;;6287231;28;20031;-83
2022/09/06 03:09:50;;;;;;;5.30;2.80;;;;;;;;;;6291569;28;20389;-83
2022/09/06 03:12:51;;;;;;;4.50;2.50;;;;;;;;;;6291714;28;20045;-83
2022/09/06 03:15:52;;;;;;;6.78;2.58;;;;;;;;;;6291997;28;20742;-83
2022/09/06 03:18:53;;;;;;;4.05;2.28;;;;;;;;;;6294052;28;20152;-83
2022/09/06 03:21:53;;;;;;;6.77;3.20;;;;;;;;;;6290615;28;20574;-83
2022/09/06 03:24:54;;;;;;;6.73;2.87;;;;;;;;;;6289435;28;20035;-83
2022/09/06 03:27:54;;;;;;;4.60;2.43;;;;;;;;;;6293391;28;20024;-83
2022/09/06 03:30:54;;;;;;;6.50;2.37;;;;;;;;;;6292001;28;20017;-83
2022/09/06 03:33:54;;;;;;;3.88;2.60;;;;;;;;;;6292814;28;20032;-83
2022/09/06 03:36:54;;;;;;;5.87;3.00;;;;;;;;;;6294227;28;20025;-83
2022/09/06 03:39:55;;;;;;;4.63;2.40;;;;;;;;;;6287503;28;20021;-83
2022/09/06 03:42:55;;;;;;;5.50;2.50;;;;;;;;;;6287066;28;20115;-83
2022/09/06 03:45:58;;;;;;;5.65;2.72;;;;;;;;;;6293281;28;20077;-83
2022/09/06 03:48:59;;;;;;;7.03;2.75;;;;;;;;;;6293885;28;20028;-83
2022/09/06 03:51:59;;;;;;;5.13;2.55;;;;;;;;;;6290303;28;20075;-83
2022/09/06 03:54:59;;;;;;;7.05;2.60;;;;;;;;;;6290790;28;20081;-83
2022/09/06 03:57:59;;;;;;;4.88;2.72;;;;;;;;;;6291813;28;20340;-83
2022/09/06 04:01:04;;;;;;;10.35;2.80;;;;;;;;;;6292263;28;20456;-83
2022/09/06 04:04:04;;;;;;;6.57;3.63;;;;;;;;;;6283242;28;20090;-83
2022/09/06 04:07:05;;;;;;;6.53;2.30;;;;;;;;;;6288337;28;20395;-83
2022/09/06 04:10:05;;;;;;;4.22;2.88;;;;;;;;;;6286568;28;20508;-83
2022/09/06 04:13:05;;;;;;;9.27;2.13;;;;;;;;;;6242922;28;20036;-84
2022/09/06 04:16:07;;;;;;;5.68;2.72;;;;;;;;;;6245087;28;20527;-83
2022/09/06 04:19:07;;;;;;;8.02;3.25;;;;;;;;;;6258916;28;20024;-83
2022/09/06 04:22:07;;;;;;;5.67;2.67;;;;;;;;;;6246454;28;20020;-83
2022/09/06 04:25:08;;;;;;;10.60;3.07;;;;;;;;;;6254022;28;20029;-83
2022/09/06 04:28:08;;;;;;;5.77;2.60;;;;;;;;;;6255250;28;20025;-83
2022/09/06 04:31:08;;;;;;;4.27;2.47;;;;;;;;;;6262310;28;20116;-83
2022/09/06 04:34:09;;;;;;;4.37;2.80;;;;;;;;;;6245286;28;20036;-83
2022/09/06 04:37:10;;;;;;;7.32;3.63;;;;;;;;;;6246344;28;20024;-83
2022/09/06 04:40:10;;;;;;;5.82;3.22;;;;;;;;;;6264720;28;20100;-83
2022/09/06 04:43:11;;;;;;;3.30;2.40;;;;;;;;;;6250086;28;20040;-83
2022/09/06 04:46:22;;;;;;;10.27;3.23;;;;;;;;;;6245486;28;20036;-83
2022/09/06 04:49:23;;;;;;;6.53;2.92;;;;;;;;;;6250513;28;20029;-83
2022/09/06 04:52:23;;;;;;;8.90;4.05;;;;;;;;;;6247223;28;20036;-83
2022/09/06 04:55:25;;;;;;;6.27;3.00;;;;;;;;;;6268461;28;20028;-83
2022/09/06 04:58:25;;;;;;;;;;;;;;;;;;6262471;28;20021;-83
2022/09/06 05:01:25;;;;;;;10.35;3.25;;;;;;;;;;6245636;28;20039;-83
2022/09/06 05:04:25;;;;;;;5.80;2.47;;;;;;;;;;6260070;28;20037;-83
2022/09/06 05:07:26;;;;;;;5.33;2.70;;;;;;;;;;6271333;28;20543;-83
2022/09/06 05:10:26;;;;;;;4.03;2.30;;;;;;;;;;6271245;28;20392;-83
2022/09/06 05:13:26;;;;;;;6.37;2.70;;;;;;;;;;6259655;28;20052;-84
2022/09/06 05:16:26;;;;;;;5.60;3.03;;;;;;;;;;6260800;28;20397;-83
2022/09/06 05:19:26;;;;;;;5.47;2.83;;;;;;;;;;6265433;28;20017;-83
2022/09/06 05:22:27;;;;;;;6.37;2.50;;;;;;;;;;6254348;28;20510;-83
2022/09/06 05:25:27;;;;;;;4.53;2.27;;;;;;;;;;6272960;28;20049;-83
2022/09/06 05:28:27;;;;;;;8.87;2.60;;;;;;;;;;6255037;28;20028;-84
2022/09/06 05:31:29;;;;;;;10.13;3.17;;;;;;;;;;6272893;28;20043;-84
2022/09/06 05:34:29;;;;;;;6.30;2.45;;;;;;;;;;6262859;28;20359;-84
2022/09/06 05:37:29;;;;;;;5.10;2.90;;;;;;;;;;6256213;28;20009;-84
2022/09/06 05:40:30;;;;;;;7.87;2.83;;;;;;;;;;6262306;28;20135;-84
2022/09/06 05:43:30;;;;;;;5.73;2.50;;;;;;;;;;6252371;28;20013;-84
2022/09/06 05:46:30;;;;;;;8.47;2.63;;;;;;;;;;6265422;28;20037;-83
2022/09/06 05:49:30;;;;;;;5.47;2.67;;;;;;;;;;6245343;28;20019;-84
2022/09/06 05:52:31;;;;;;;13.50;3.00;;;;;;;;;;6252120;28;20055;-84
2022/09/06 05:55:32;;;;;;;8.20;3.33;;;;;;;;;;6253593;28;20017;-84
2022/09/06 05:58:32;;;;;;;8.30;2.42;;;;;;;;;;6250653;28;20024;-84
2022/09/06 06:01:32;;;;;;;8.07;2.73;;;;;;;;;;6267025;28;20417;-84
2022/09/06 06:04:32;;;;;;;5.83;2.70;;;;;;;;;;6243501;28;20441;-84
2022/09/06 06:07:33;;;;;;;6.10;2.57;;;;;;;;;;6268227;28;20107;-84
2022/09/06 06:10:33;;;;;;;6.07;3.20;;;;;;;;;;6275578;28;20040;-84
2022/09/06 06:13:38;;;;;;;6.37;2.63;;;;;;;;;;6273521;28;20150;-84
2022/09/06 06:16:38;;;;;;;8.07;2.92;;;;;;;;;;6276808;28;20059;-84
2022/09/06 06:19:39;;;;;;;6.97;2.23;;;;;;;;;;6293890;28;20025;-84
2022/09/06 06:22:39;;;;;;;6.45;2.70;;;;;;;;;;6294237;28;20021;-84
2022/09/06 06:25:39;;;;;;;13.07;3.70;;;;;;;;;;6294813;28;20024;-84
2022/09/06 06:28:39;;;;;;;6.80;2.97;;;;;;;;;;6292710;28;20024;-84
2022/09/06 06:31:40;;;;;;;3.83;2.20;;;;;;;;;;6295238;28;20078;-84
2022/09/06 06:34:40;;;;;;;7.50;2.60;;;;;;;;;;6288654;28;20010;-84
2022/09/06 06:37:41;;;;;;;7.33;3.40;;;;;;;;;;6287153;28;20020;-84
2022/09/06 06:40:44;;;;;;;6.80;2.55;;;;;;;;;;6289076;28;20023;-84
2022/09/06 06:43:44;;;;;;;7.35;2.50;;;;;;;;;;6274203;28;20008;-84
2022/09/06 06:46:44;;;;;;;7.57;2.80;;;;;;;;;;6291373;28;20399;-84
2022/09/06 06:49:44;;;;;;;4.17;2.43;;;;;;;;;;6287191;28;20021;-84
2022/09/06 06:52:45;;;;;;;4.53;2.40;;;;;;;;;;6287878;28;20022;-84
2022/09/06 06:55:46;;;;;;;4.57;2.50;;;;;;;;;;6277393;28;20017;-84
2022/09/06 06:58:47;;;;;;;4.80;2.13;;;;;;;;;;6273636;28;20425;-84
2022/09/06 07:01:49;;;;;;;5.18;2.83;;;;;;;;;;6291795;28;20456;-84
2022/09/06 07:04:49;;;;;;;5.63;2.40;;;;;;;;;;6275400;28;20036;-84
2022/09/06 07:07:49;;;;;;;9.27;2.97;;;;;;;;;;6295012;28;20069;-85
2022/09/06 07:10:49;;;;;;;;;;;;;;;;;;6287781;28;20045;-84
2022/09/06 07:13:50;;;;;;;6.40;2.97;;;;;;;;;;6273129;28;19916;-84
2022/09/06 07:16:56;;;;;;;;;;;;;;;;;;6267488;28;20051;-84
2022/09/06 07:19:56;;;;;;;9.90;3.08;;;;;;;;;;6270345;28;19913;-84
2022/09/06 07:22:57;;;;;;;;;;;;;;;;;;6272225;28;20024;-84
2022/09/06 07:25:57;;;;;;;5.32;2.20;;;;;;;;;;6259769;28;19912;-84
2022/09/06 07:28:57;;;;;;;;;;;;;;;;;;6271285;28;20021;-84
2022/09/06 07:31:58;;;;;;;3.83;2.50;;;;;;;;;;6266282;28;19957;-84
2022/09/06 07:34:58;;;;;;;;;;;;;;;;;;6248158;28;20192;-84
2022/09/06 07:37:59;;;;;;;6.47;2.63;;;;;;;;;;6266588;28;19909;-85
2022/09/06 07:41:01;;;;;;;8.30;2.92;;;;;;;;;;6265474;28;20043;-84
2022/09/06 07:44:01;;;;;;;6.28;2.28;;;;;;;;;;6248962;28;20024;-84
2022/09/06 07:47:07;;;;;;;8.60;2.83;;;;;;;;;;6264808;28;20017;-84
2022/09/06 07:50:07;;;;;;;8.90;2.40;;;;;;;;;;6249517;28;20408;-84
2022/09/06 07:53:07;;;;;;;3.07;1.63;;;;;;;;;;6267949;28;20028;-84
2022/09/06 07:56:09;;;;;;;8.77;2.38;;;;;;;;;;6268413;28;20388;-84
2022/09/06 07:59:09;;;;;;;7.10;2.30;;;;;;;;;;6269412;28;20036;-84
2022/09/06 08:02:09;;;;;;;3.83;2.03;;;;;;;;;;6272882;28;20017;-84
2022/09/06 08:05:09;;;;;;;5.30;2.17;;;;;;;;;;6268467;28;20021;-85
2022/09/06 08:08:10;;;;;;;6.77;2.20;;;;;;;;;;6257668;28;20020;-85
2022/09/06 08:11:10;;;;;;;4.78;2.15;;;;;;;;;;6259760;28;20504;-84
2022/09/06 08:14:10;;;;;;;2.80;1.90;;;;;;;;;;6260742;28;20031;-84
2022/09/06 08:17:10;;;;;;;7.27;2.27;;;;;;;;;;6249993;28;20072;-84
2022/09/06 08:20:11;;;;;;;7.80;2.67;;;;;;;;;;6265297;28;20059;-84
2022/09/06 08:23:12;;;;;;;3.60;1.90;;;;;;;;;;6268923;28;20123;-84
2022/09/06 08:26:12;;;;;;;4.10;2.07;;;;;;;;;;6259653;28;20096;-84
2022/09/06 08:29:12;;;;;;;7.60;2.33;;;;;;;;;;6257324;28;20455;-84
2022/09/06 08:32:12;;;;;;;5.33;1.90;;;;;;;;;;6267371;28;20773;-84
2022/09/06 08:35:13;;;;;;;6.33;2.27;;;;;;;;;;6251179;28;20470;-84
2022/09/06 08:38:13;;;;;;;8.60;1.90;;;;;;;;;;6251311;28;20070;-84
2022/09/06 08:41:13;;;;;;;7.10;1.60;;;;;;;;;;6254655;28;20013;-84
2022/09/06 08:44:24;;;;;;;4.30;1.70;;;;;;;;;;6274122;28;20028;-84
2022/09/06 08:47:24;;;;;;;13.02;2.10;;;;;;;;;;6251619;28;20024;-84
2022/09/06 08:50:27;;;;;;;5.10;2.00;;;;;;;;;;6264467;28;20071;-84
2022/09/06 08:53:27;;;;;;;5.72;1.52;;;;;;;;;;6258596;28;20026;-84
2022/09/06 08:56:31;;;;;;;5.83;2.43;;;;;;;;;;6265764;28;20112;-84
2022/09/06 08:59:38;;;;;;;4.35;1.90;;;;;;;;;;6255743;28;20028;-84
2022/09/06 09:02:46;;;;;;;6.05;2.22;;;;;;;;;;6255954;28;20112;-84
2022/09/06 09:05:48;;;;;;;4.70;2.58;;;;;;;;;;6273117;28;20021;-84
2022/09/06 09:08:48;;;;;;;4.47;2.10;;;;;;;;;;6252665;28;20754;-84
2022/09/06 09:11:49;;;;;;;9.80;2.00;;;;;;;;;;6269893;28;20046;-84
2022/09/06 09:14:52;;;;;;;7.10;2.40;;;;;;;;;;6270825;28;20020;-84
2022/09/06 09:17:52;;;;;;;6.50;2.00;;;;;;;;;;6260794;28;20616;-84
2022/09/06 09:20:52;;;;;;;6.70;2.23;;;;;;;;;;6268689;28;20063;-84
2022/09/06 09:23:54;;;;;;;4.17;1.67;;;;;;;;;;6264592;28;20072;-84
2022/09/06 09:27:10;;;;;;;5.15;2.17;;;;;;;;;;6265539;28;20028;-84
2022/09/06 09:30:10;;;;;;;5.15;2.08;;;;;;;;;;6244139;28;20033;-84
2022/09/06 09:33:23;;;;;;;9.83;2.33;;;;;;;;;;6266348;28;20421;-83
2022/09/06 09:36:23;;;;;;;6.40;2.30;;;;;;;;;;6250413;28;20705;-83
2022/09/06 09:39:32;;;;;;;7.20;1.93;;;;;;;;;;6269626;28;20036;-83
2022/09/06 09:42:38;;;;;;;6.90;2.20;;;;;;;;;;6269857;28;20025;-83
2022/09/06 09:45:38;;;;;;;11.15;2.25;;;;;;;;;;6270775;28;20092;-84
2022/09/06 09:48:39;;;;;;;7.73;2.77;;;;;;;;;;6271139;28;20025;-83
2022/09/06 09:51:41;;;;;;;6.53;2.15;;;;;;;;;;6253310;28;20021;-83
2022/09/06 09:54:43;;;;;;;7.03;1.70;;;;;;;;;;6272259;28;20017;-83
2022/09/06 09:57:45;;;;;;;10.18;2.20;;;;;;;;;;6267296;28;20014;-83
2022/09/06 10:00:45;;;;;;;6.75;2.20;;;;;;;;;;6272683;28;20067;-83
2022/09/06 10:03:46;;;;;;;6.00;1.90;;;;;;;;;;6265885;28;20024;-83
2022/09/06 10:06:46;;;;;;;4.57;1.53;;;;;;;;;;6256752;28;20029;-84
2022/09/06 10:09:47;;;;;;;6.60;2.10;;;;;;;;;;6242822;28;20032;-84
2022/09/06 10:12:48;;;;;;;7.03;1.90;;;;;;;;;;6280102;28;20041;-84
2022/09/06 10:15:49;;;;;;;6.47;1.73;;;;;;;;;;6288599;28;20008;-84
2022/09/06 10:18:51;;;;;;;5.32;1.77;;;;;;;;;;6290120;28;20111;-84
2022/09/06 10:21:54;;;;;;;4.13;1.67;;;;;;;;;;6291249;28;20087;-84
2022/09/06 10:25:10;;;;;;;9.40;2.22;;;;;;;;;;6292394;28;20535;-84
2022/09/06 10:28:21;;;;;;;6.00;1.90;;;;;;;;;;6293635;28;20107;-84
2022/09/06 10:31:28;;;;;;;2.40;1.05;;;;;;;;;;6289287;28;20107;-84
2022/09/06 10:34:46;;;;;;;14.25;2.58;;;;;;;;;;6286328;28;20115;-83
2022/09/06 10:37:52;;;;;;;5.95;2.25;;;;;;;;;;6283871;28;20021;-84
2022/09/06 10:41:05;;;;;;;4.57;1.70;;;;;;;;;;6283826;28;20017;-84
2022/09/06 10:44:17;;;;;;;5.72;1.90;;;;;;;;;;6285452;28;20680;-84
2022/09/06 10:47:17;;;;;;;4.43;1.50;;;;;;;;;;6289784;28;20399;-84
2022/09/06 10:50:18;;;;;;;5.27;1.60;;;;;;;;;;6295773;28;20108;-84
2022/09/06 10:53:21;;;;;;;2.80;1.37;;;;;;;;;;6295040;28;20017;-84
2022/09/06 10:56:23;;;;;;;4.57;1.60;;;;;;;;;;6289346;28;20025;-84
2022/09/06 10:59:24;;;;;;;7.43;1.98;;;;;;;;;;6293438;28;20020;-84
2022/09/06 11:02:33;;;;;;;4.30;1.70;;;;;;;;;;6293124;28;20021;-84
2022/09/06 11:05:34;;;;;;;6.43;2.55;;;;;;;;;;6288195;28;20070;-84
2022/09/06 11:08:50;;;;;;;3.97;1.70;;;;;;;;;;6295290;28;20017;-84
2022/09/06 11:12:03;;;;;;;5.53;1.58;;;;;;;;;;6278192;28;20044;-84
2022/09/06 11:15:04;;;;;;;9.25;2.10;;;;;;;;;;6250177;28;20021;-84
2022/09/06 11:18:25;;;;;;;3.97;1.75;;;;;;;;;;6242771;28;20025;-84
2022/09/06 11:21:35;;;;;;;6.50;2.13;;;;;;;;;;6267190;28;20025;-84
2022/09/06 11:24:39;;;;;;;4.70;1.98;;;;;;;;;;6267903;28;20028;-84
2022/09/06 11:27:41;;;;;;;6.50;1.58;;;;;;;;;;6263137;28;20675;-84
2022/09/06 11:30:45;;;;;;;6.05;2.10;;;;;;;;;;6269483;28;20044;-83
2022/09/06 11:33:48;;;;;;;3.03;1.88;;;;;;;;;;6240243;28;20025;-83
2022/09/06 11:36:50;;;;;;;4.07;2.10;;;;;;;;;;6259114;28;20043;-83
2022/09/06 11:40:02;;;;;;;5.05;1.67;;;;;;;;;;6261820;28;20033;-84
2022/09/06 11:43:03;;;;;;;7.45;2.05;;;;;;;;;;6245160;28;20031;-84
2022/09/06 11:46:03;;;;;;;5.28;1.77;;;;;;;;;;6237998;28;20123;-84
2022/09/06 11:49:08;;;;;;;2.93;1.73;;;;;;;;;;6259766;28;20063;-84
2022/09/06 11:52:27;;;;;;;4.43;2.00;;;;;;;;;;6260547;28;20477;-84
2022/09/06 11:55:42;;;;;;;6.13;1.80;;;;;;;;;;6262005;28;20303;-84
2022/09/06 11:58:46;;;;;;;8.98;2.08;;;;;;;;;;6269272;28;20100;-84
2022/09/06 12:01:58;;;;;;;4.93;1.95;;;;;;;;;;6263655;28;20024;-84
2022/09/06 12:05:02;;;;;;;5.47;2.22;;;;;;;;;;6262992;28;20012;-84
2022/09/06 12:08:21;;;;;;;6.50;2.38;;;;;;;;;;6267545;28;20017;-84
2022/09/06 12:11:22;;;;;;;8.88;2.90;;;;;;;;;;6260074;28;20029;-84
2022/09/06 12:14:34;;;;;;;3.93;2.17;;;;;;;;;;6240534;28;20025;-84
2022/09/06 12:17:45;;;;;;;4.30;2.55;;;;;;;;;;6242415;28;20014;-84
2022/09/06 12:20:51;;;;;;;5.38;1.90;;;;;;;;;;6246333;28;20017;-84
2022/09/06 12:23:52;;;;;;;5.53;2.17;;;;;;;;;;6262640;28;20121;-84
2022/09/06 12:27:08;;;;;;;5.37;1.90;;;;;;;;;;6247704;28;20043;-84
2022/09/06 12:30:12;;;;;;;3.17;1.80;;;;;;;;;;6253742;28;20033;-84
2022/09/06 12:33:16;;;;;;;6.53;2.55;;;;;;;;;;6241861;28;20013;-84
2022/09/06 12:36:22;;;;;;;5.13;1.75;;;;;;;;;;6246222;28;20023;-84
2022/09/06 12:39:22;;;;;;;6.57;2.00;;;;;;;;;;6254125;28;20095;-84
2022/09/06 12:42:22;;;;;;;5.78;2.30;;;;;;;;;;6241153;28;20017;-84
2022/09/06 12:45:23;;;;;;;2.60;2.30;;;;;;;;;;6248674;28;20052;-84
2022/09/06 12:48:32;;;;;;;6.72;2.28;;;;;;;;;;6266891;28;20021;-84
2022/09/06 12:51:33;;;;;;;5.90;2.55;;;;;;;;;;6247453;28;20108;-84
2022/09/06 12:54:39;;;;;;;5.90;3.08;;;;;;;;;;6246424;28;20017;-84
2022/09/06 12:57:45;;;;;;;4.55;2.05;;;;;;;;;;6258302;28;20017;-84
2022/09/06 13:00:51;;;;;;;6.18;2.45;;;;;;;;;;6260771;28;20555;-84
2022/09/06 13:03:59;;;;;;;5.20;2.30;;;;;;;;;;6243466;28;20025;-85
2022/09/06 13:06:59;;;;;;;4.75;2.20;;;;;;;;;;6259461;28;20018;-85
2022/09/06 13:10:00;;;;;;;8.48;2.47;;;;;;;;;;6260020;28;20049;-85
2022/09/06 13:13:01;;;;;;;6.03;2.80;;;;;;;;;;6257260;28;20146;-85
2022/09/06 13:16:02;;;;;;;6.43;2.30;;;;;;;;;;6260781;28;20112;-84
2022/09/06 13:19:12;;;;;;;5.38;2.03;;;;;;;;;;6246083;28;20036;-84
2022/09/06 13:22:33;;;;;;;4.27;2.20;;;;;;;;;;6265022;28;20025;-85
2022/09/06 13:25:33;;;;;;;8.77;2.22;;;;;;;;;;6260675;28;20476;-84
2022/09/06 13:28:33;;;;;;;6.80;2.33;;;;;;;;;;6253259;28;20028;-84
2022/09/06 13:31:34;;;;;;;4.10;1.90;;;;;;;;;;6274960;28;20025;-84
2022/09/06 13:34:34;;;;;;;3.97;1.97;;;;;;;;;;6266079;28;20279;-84
2022/09/06 13:37:38;;;;;;;7.30;2.90;;;;;;;;;;6265424;28;20066;-85
2022/09/06 13:40:42;;;;;;;5.18;2.20;;;;;;;;;;6257833;28;20005;-85
2022/09/06 13:43:43;;;;;;;4.80;2.42;;;;;;;;;;6269543;28;20438;-84
2022/09/06 13:46:44;;;;;;;8.05;2.25;;;;;;;;;;6249234;28;20448;-84
2022/09/06 13:49:46;;;;;;;7.07;2.23;;;;;;;;;;6256580;28;20024;-84
2022/09/06 13:52:46;;;;;;;3.58;2.03;;;;;;;;;;6274844;28;20088;-85
2022/09/06 13:55:46;;;;;;;4.03;1.93;;;;;;;;;;6255957;28;20015;-85
2022/09/06 13:58:46;;;;;;;4.93;1.90;;;;;;;;;;6273388;28;20448;-84
2022/09/06 14:01:48;;;;;;;3.40;1.77;;;;;;;;;;6262643;28;20025;-84
2022/09/06 14:04:48;;;;;;;4.85;1.92;;;;;;;;;;6256873;28;20013;-85
2022/09/06 14:07:49;;;;;;;7.30;1.90;;;;;;;;;;6264216;28;20029;-84
2022/09/06 14:10:49;;;;;;;4.40;2.60;;;;;;;;;;6271859;28;20041;-84
2022/09/06 14:13:50;;;;;;;6.22;2.60;;;;;;;;;;6270010;28;20546;-85
2022/09/06 14:16:50;;;;;;;5.27;2.10;;;;;;;;;;6260193;28;20023;-85
2022/09/06 14:19:50;;;;;;;10.87;2.23;;;;;;;;;;6271564;28;20208;-85
2022/09/06 14:22:50;;;;;;;10.07;2.30;;;;;;;;;;6268287;28;20014;-85
2022/09/06 14:25:54;;;;;;;4.23;2.10;;;;;;;;;;6266274;28;20528;-85
2022/09/06 14:28:55;;;;;;;7.45;2.65;;;;;;;;;;6258720;28;20025;-85
2022/09/06 14:31:55;;;;;;;7.67;2.40;;;;;;;;;;6246381;28;20552;-85
2022/09/06 14:34:55;;;;;;;4.80;2.67;;;;;;;;;;6265876;28;20495;-85
2022/09/06 14:37:55;;;;;;;5.13;2.00;;;;;;;;;;6246049;28;20781;-85
2022/09/06 14:41:01;;;;;;;3.43;2.23;;;;;;;;;;6268977;28;20025;-85
2022/09/06 14:44:02;;;;;;;4.38;2.17;;;;;;;;;;6263258;28;20031;-85
2022/09/06 14:47:02;;;;;;;5.25;3.25;;;;;;;;;;6243366;28;20376;-85
2022/09/06 14:50:03;;;;;;;10.43;2.13;;;;;;;;;;6262097;28;20026;-85
2022/09/06 14:53:03;;;;;;;4.63;2.73;;;;;;;;;;6262010;28;20021;-85
2022/09/06 14:56:04;;;;;;;6.63;2.60;;;;;;;;;;6271453;28;20374;-85
2022/09/06 14:59:05;;;;;;;4.73;2.47;;;;;;;;;;6255029;28;20387;-85
2022/09/06 15:02:05;;;;;;;11.02;2.40;;;;;;;;;;6271335;28;20032;-85
2022/09/06 15:05:05;;;;;;;5.47;2.15;;;;;;;;;;6260056;28;20029;-84
2022/09/06 15:08:05;;;;;;;4.43;1.93;;;;;;;;;;6256982;28;20057;-85
2022/09/06 15:11:06;;;;;;;6.57;2.27;;;;;;;;;;6257845;28;20688;-85
2022/09/06 15:14:11;;;;;;;7.10;2.50;;;;;;;;;;6280381;28;20028;-85
2022/09/06 15:17:12;;;;;;;5.72;2.47;;;;;;;;;;6284892;28;20084;-85
2022/09/06 15:20:12;;;;;;;9.47;2.40;;;;;;;;;;6288937;28;20025;-84
2022/09/06 15:23:12;;;;;;;9.57;2.42;;;;;;;;;;6281972;28;20359;-85
2022/09/06 15:26:13;;;;;;;5.60;2.03;;;;;;;;;;6285253;28;20017;-85
2022/09/06 15:29:14;;;;;;;5.47;2.20;;;;;;;;;;6282451;28;20055;-85
2022/09/06 15:32:14;;;;;;;7.80;2.35;;;;;;;;;;6289256;28;20025;-85
2022/09/06 15:35:15;;;;;;;4.65;2.00;;;;;;;;;;6283197;28;20044;-85
2022/09/06 15:38:15;;;;;;;4.43;2.95;;;;;;;;;;6293159;28;20888;-85
2022/09/06 15:41:17;;;;;;;5.57;2.53;;;;;;;;;;6284409;28;20139;-85
2022/09/06 15:44:18;;;;;;;7.70;3.05;;;;;;;;;;6289156;28;20130;-85
2022/09/06 15:47:18;;;;;;;6.18;2.42;;;;;;;;;;6290918;28;20103;-85
2022/09/06 15:50:18;;;;;;;6.53;2.28;;;;;;;;;;6291740;28;20012;-84
2022/09/06 15:53:19;;;;;;;5.57;2.25;;;;;;;;;;6292253;28;20016;-84
2022/09/06 15:56:19;;;;;;;8.00;2.93;;;;;;;;;;6295122;28;20020;-84
2022/09/06 15:59:19;;;;;;;8.13;3.03;;;;;;;;;;6292402;28;20028;-85
2022/09/06 16:02:20;;;;;;;5.50;2.30;;;;;;;;;;6292769;28;20032;-84
2022/09/06 16:05:20;;;;;;;9.10;3.27;;;;;;;;;;6293612;28;20048;-84
2022/09/06 16:08:20;;;;;;;6.37;3.03;;;;;;;;;;6293493;28;20111;-84
2022/09/06 16:11:20;;;;;;;8.57;2.33;;;;;;;;;;6283704;28;20231;-84
2022/09/06 16:14:21;;;;;;;8.50;2.97;;;;;;;;;;6265123;28;20024;-84
2022/09/06 16:17:22;;;;;;;10.33;3.20;;;;;;;;;;6269751;28;20013;-84
2022/09/06 16:20:22;;;;;;;5.20;2.15;;;;;;;;;;6249587;28;20032;-84
2022/09/06 16:23:23;;;;;;;8.27;4.03;;;;;;;;;;6269808;28;20028;-84
2022/09/06 16:26:24;;;;;;;3.63;2.40;;;;;;;;;;6245836;28;20025;-84
2022/09/06 16:29:24;;;;;;;7.80;2.75;;;;;;;;;;6236278;28;20025;-84
2022/09/06 16:32:24;;;;;;;5.47;2.70;;;;;;;;;;6257854;28;20025;-84
2022/09/06 16:35:24;;;;;;;6.53;2.43;;;;;;;;;;6259489;28;20037;-84
2022/09/06 16:38:27;;;;;;;7.50;3.20;;;;;;;;;;6249226;28;20044;-84
2022/09/06 16:41:30;;;;;;;6.43;2.15;;;;;;;;;;6243462;28;20044;-84
2022/09/06 16:44:30;;;;;;;4.55;2.60;;;;;;;;;;6241214;28;20761;-84
2022/09/06 16:47:30;;;;;;;10.37;2.50;;;;;;;;;;6265011;28;20101;-84
2022/09/06 16:50:31;;;;;;;7.00;3.00;;;;;;;;;;6261438;28;20080;-85
2022/09/06 16:53:31;;;;;;;8.67;3.20;;;;;;;;;;6258090;28;20029;-85
2022/09/06 16:56:34;;;;;;;7.77;3.30;;;;;;;;;;6248772;28;20489;-85
2022/09/06 16:59:34;;;;;;;7.90;3.70;;;;;;;;;;6243322;28;20024;-85
2022/09/06 17:02:34;;;;;;;9.93;4.23;;;;;;;;;;6246139;28;20397;-85
2022/09/06 17:05:35;;;;;;;7.40;3.40;;;;;;;;;;6250971;28;20473;-85
2022/09/06 17:08:35;;;;;;;9.77;3.33;;;;;;;;;;6268808;28;20043;-85
2022/09/06 17:11:39;;;;;;;11.43;3.77;;;;;;;;;;6262013;28;20128;-84
2022/09/06 17:14:39;;;;;;;6.35;3.42;;;;;;;;;;6295335;28;20055;-85
2022/09/06 17:17:39;;;;;;;9.00;3.93;;;;;;;;;;6288041;28;20082;-85
2022/09/06 17:20:40;;;;;;;9.20;4.20;;;;;;;;;;6290186;28;20047;-85
2022/09/06 17:23:40;;;;;;;8.80;4.18;;;;;;;;;;6282616;28;20048;-84
2022/09/06 17:26:41;;;;;;;12.60;5.43;;;;;;;;;;6292771;28;20033;-84
2022/09/06 17:29:41;;;;;;;12.23;5.13;;;;;;;;;;6286984;28;20384;-84
2022/09/06 17:32:41;;;;;;;18.43;8.13;;;;;;;;;;6288377;28;20020;-84
2022/09/06 17:35:45;;;;;;;16.30;8.67;;;;;;;;;;6307478;28;20040;-84
2022/09/06 17:38:46;;;;;;;18.98;8.10;;;;;;;;;;6299125;28;20016;-84
2022/09/06 17:41:48;;;;;;;12.20;6.90;;;;;;;;;;6292820;28;20040;-84
2022/09/06 17:44:48;;;;;;;17.38;7.45;;;;;;;;;;6299240;28;20021;-84
2022/09/06 17:47:49;;;;;;;14.03;5.70;;;;;;;;;;6286550;28;20025;-84
2022/09/06 17:50:50;;;;;;;14.52;6.63;;;;;;;;;;6286340;28;20021;-84
2022/09/06 17:53:50;;;;;;;16.92;7.53;;;;;;;;;;6286469;28;20029;-84
2022/09/06 17:56:51;;;;;;;19.60;7.37;;;;;;;;;;6284554;28;20021;-84
2022/09/06 17:59:51;;;;;;;16.90;9.00;;;;;;;;;;6291582;28;20016;-84
2022/09/06 18:02:51;;;;;;;18.85;9.07;;;;;;;;;;6299558;28;20113;-84
2022/09/06 18:05:51;;;;;;;21.87;9.57;;;;;;;;;;6281140;28;20021;-84
2022/09/06 18:08:53;;;;;;;24.07;10.70;;;;;;;;;;6283979;28;20455;-84
2022/09/06 18:11:53;;;;;;;;;;;;;;;;;;6274640;28;20040;-84